Fidias — A8MP7 — position and weather

sailwx.info

Track history (hours):
 
Tides and Currents Weather Stations Pressure Air Temp Water Temp Dewpoint Dewpoint Depression Visibility Wind Speed Wind Dir Waves Ship Positions

Fidias

Last reported at 2017-Dec-15 00:59 UTC. Time now 2017-Dec-15 02:49 UTC.
Position N 52°24' E 004°46'.

Length 183 m; draft 8.6 m.

Type: Tanker. MMSI: 636013390.

Date/timePositionNaut miles runAvg speedWind from/ knotsBaromVisibWave heightAir tempDewpointWater temp
2017-Dec-15 00:59N 52°24' E 004°46'0 0.0
2017-Dec-15 00:29N 52°24' E 004°46'0 0.0
2017-Dec-14 18:29N 52°24' E 004°46'0 0.0
2017-Dec-14 17:53N 52°24' E 004°46'0 0.0
2017-Dec-14 17:29N 52°24' E 004°46'0 0.0
2017-Dec-14 16:53N 52°24' E 004°46'0 0.0
2017-Dec-14 16:23N 52°24' E 004°46'0 0.0
2017-Dec-14 15:56N 52°24' E 004°46'0 0.0
2017-Dec-14 14:59N 52°24' E 004°46'0 0.0
2017-Dec-14 14:20N 52°24' E 004°46'0 0.0
2017-Dec-14 13:59N 52°24' E 004°46'0 0.7
2017-Dec-14 13:30N 52°25' E 004°47'3 6.2
2017-Dec-14 13:00N 52°26' E 004°42'4 7.6
2017-Dec-14 12:31N 52°28' E 004°37'0 0.3
2017-Dec-14 12:01N 52°28' E 004°36'2 3.8
2017-Dec-14 11:30N 52°28' E 004°33'510.1
2017-Dec-14 11:00N 52°29' E 004°25'1 1.2
2017-Dec-14 10:31N 52°29' E 004°25'1 2.3
2017-Dec-14 10:00N 52°28' E 004°24'0 0.6
2017-Dec-14 09:31N 52°28' E 004°24'2 3.9
2017-Dec-14 09:01N 52°28' E 004°21'4 7.2
2017-Dec-14 08:31N 52°29' E 004°15'611.8
2017-Dec-14 08:00N 52°28' E 004°05'1 2.2
2017-Dec-14 07:25N 52°27' E 004°03'0 0.2
2017-Dec-14 06:58N 52°27' E 004°03'0 0.0
2017-Dec-14 06:28N 52°27' E 004°03'0 0.1
2017-Dec-14 05:58N 52°27' E 004°03'0 0.0
2017-Dec-14 05:28N 52°27' E 004°03'0 0.0
2017-Dec-14 04:58N 52°27' E 004°03'0 0.0
2017-Dec-14 04:28N 52°27' E 004°03'0 0.0
2017-Dec-14 03:58N 52°27' E 004°03'0 0.0
2017-Dec-14 03:28N 52°27' E 004°03'0 0.0
2017-Dec-14 02:58N 52°27' E 004°03'0 0.0
2017-Dec-14 02:28N 52°27' E 004°03'0 0.0
2017-Dec-14 01:58N 52°27' E 004°03'0 0.0
2017-Dec-14 01:28N 52°27' E 004°03'0 0.0
2017-Dec-14 00:46N 52°27' E 004°03'0 0.1
2017-Dec-14 00:28N 52°27' E 004°03'0 0.0
2017-Dec-13 23:55N 52°27' E 004°03'0 0.0
2017-Dec-13 23:28N 52°27' E 004°03'0 0.0
2017-Dec-13 22:55N 52°27' E 004°03'0 0.0
2017-Dec-13 22:22N 52°27' E 004°03'0 0.1
2017-Dec-13 21:52N 52°27' E 004°03'0 0.0
2017-Dec-13 21:25N 52°27' E 004°03'0 0.0
2017-Dec-13 20:58N 52°27' E 004°03'0 0.1
2017-Dec-13 20:25N 52°27' E 004°03'0 0.0
2017-Dec-13 19:58N 52°27' E 004°03'0 0.1
2017-Dec-13 19:22N 52°27' E 004°03'0 0.2
2017-Dec-13 18:58N 52°27' E 004°03'0 0.2
2017-Dec-13 18:28N 52°27' E 004°03'0 0.1
2017-Dec-13 17:58N 52°27' E 004°03'0 0.0
2017-Dec-13 17:28N 52°27' E 004°03'0 0.0
2017-Dec-13 16:58N 52°27' E 004°03'0 0.1
2017-Dec-13 16:28N 52°27' E 004°03'0 0.0
2017-Dec-13 15:58N 52°27' E 004°03'0 0.0
2017-Dec-13 15:28N 52°27' E 004°03'0 0.0
2017-Dec-13 14:58N 52°27' E 004°03'0 0.0
2017-Dec-13 14:28N 52°27' E 004°03'0 0.0
2017-Dec-13 13:28N 52°27' E 004°03'0 0.0
2017-Dec-13 12:58N 52°27' E 004°03'0 0.0
2017-Dec-13 12:28N 52°27' E 004°03'0 0.0
2017-Dec-13 11:58N 52°27' E 004°03'0 0.0
2017-Dec-13 11:28N 52°27' E 004°03'0 0.0
2017-Dec-13 10:58N 52°27' E 004°03'0 0.0
2017-Dec-13 10:28N 52°27' E 004°03'0 0.1
2017-Dec-13 09:58N 52°27' E 004°03'0 0.0
2017-Dec-13 09:28N 52°27' E 004°03'0 0.0
2017-Dec-13 08:58N 52°27' E 004°03'0 0.0
2017-Dec-13 08:28N 52°27' E 004°03'0 0.0
2017-Dec-13 07:58N 52°27' E 004°03'0 0.0
2017-Dec-13 07:28N 52°27' E 004°03'0 0.0
2017-Dec-13 06:58N 52°27' E 004°03'0 0.0
2017-Dec-13 06:28N 52°27' E 004°03'0 0.1
2017-Dec-13 05:58N 52°27' E 004°03'0 0.0
2017-Dec-13 05:28N 52°27' E 004°03'0 0.1
2017-Dec-13 04:58N 52°27' E 004°03'0 0.0
2017-Dec-13 04:28N 52°27' E 004°03'0 0.1
2017-Dec-13 03:58N 52°27' E 004°03'0 0.0
2017-Dec-13 03:28N 52°27' E 004°03'0 0.0
2017-Dec-13 02:58N 52°27' E 004°03'0 0.0
2017-Dec-13 02:25N 52°27' E 004°03'0 0.0
2017-Dec-13 01:58N 52°27' E 004°03'0 0.0
2017-Dec-13 01:28N 52°27' E 004°03'0 0.0
2017-Dec-13 00:58N 52°27' E 004°03'0 0.0
2017-Dec-13 00:28N 52°27' E 004°03'0 0.0
2017-Dec-12 23:58N 52°27' E 004°03'0 0.0
2017-Dec-12 23:28N 52°27' E 004°03'0 0.0
2017-Dec-12 22:58N 52°27' E 004°03'0 0.0
2017-Dec-12 22:28N 52°27' E 004°03'0 0.0
2017-Dec-12 21:55N 52°27' E 004°03'0 0.1
2017-Dec-12 21:28N 52°27' E 004°03'0 0.0
2017-Dec-12 20:58N 52°27' E 004°03'0 0.0
2017-Dec-12 20:28N 52°27' E 004°03'0 0.1
2017-Dec-12 19:58N 52°27' E 004°03'0 0.0
2017-Dec-12 19:28N 52°27' E 004°03'0 0.2
2017-Dec-12 18:58N 52°27' E 004°03'0 0.1
2017-Dec-12 18:28N 52°27' E 004°03'0 0.0
2017-Dec-12 17:58N 52°27' E 004°03'0 0.0
2017-Dec-12 17:28N 52°27' E 004°03'0 0.0
2017-Dec-12 16:58N 52°27' E 004°03'0 0.0
2017-Dec-12 16:28N 52°27' E 004°03'0 0.1
2017-Dec-12 15:55N 52°27' E 004°03'0 0.1
2017-Dec-12 15:28N 52°27' E 004°03'0 0.0
2017-Dec-12 14:55N 52°27' E 004°03'0 0.0
2017-Dec-12 14:28N 52°27' E 004°03'0 0.0
2017-Dec-12 13:55N 52°27' E 004°03'0 0.1
2017-Dec-12 13:25N 52°27' E 004°03'0 0.0
2017-Dec-12 12:55N 52°27' E 004°03'0 0.1
2017-Dec-12 12:19N 52°27' E 004°03'0 0.3
2017-Dec-12 11:58N 52°27' E 004°03'0 0.1
2017-Dec-12 11:25N 52°27' E 004°03'0 0.2
2017-Dec-12 10:58N 52°27' E 004°03'0 0.1
2017-Dec-12 10:28N 52°27' E 004°03'0 0.1
2017-Dec-12 09:55N 52°27' E 004°03'0 0.1
2017-Dec-12 09:19N 52°27' E 004°03'0 0.0
2017-Dec-12 08:58N 52°27' E 004°03'0 0.1
2017-Dec-12 08:28N 52°27' E 004°03'0 0.0
2017-Dec-12 07:58N 52°27' E 004°03'0 0.1
2017-Dec-12 07:28N 52°27' E 004°03'0 0.0
2017-Dec-12 06:55N 52°27' E 004°03'0 0.0
2017-Dec-12 06:22N 52°27' E 004°03'0 0.0
2017-Dec-12 05:58N 52°27' E 004°03'0 0.1
2017-Dec-12 05:25N 52°27' E 004°03'0 0.1
2017-Dec-12 04:58N 52°27' E 004°03'0 0.0
2017-Dec-12 04:28N 52°27' E 004°03'0 0.0
2017-Dec-12 03:58N 52°27' E 004°03'0 0.0
2017-Dec-12 03:22N 52°27' E 004°03'0 0.0
2017-Dec-12 02:58N 52°27' E 004°03'0 0.0
2017-Dec-12 02:28N 52°27' E 004°03'0 0.0
2017-Dec-12 01:58N 52°27' E 004°03'0 0.0
2017-Dec-12 01:28N 52°27' E 004°03'0 0.0
2017-Dec-12 00:58N 52°27' E 004°03'0 0.1
2017-Dec-12 00:28N 52°27' E 004°03'0 0.1
2017-Dec-11 23:58N 52°27' E 004°03'0 0.1
2017-Dec-11 23:28N 52°27' E 004°03'0 0.0
2017-Dec-11 22:58N 52°27' E 004°03'0 0.0
2017-Dec-11 22:25N 52°27' E 004°03'0 0.1
2017-Dec-11 21:58N 52°27' E 004°03'0 0.1
2017-Dec-11 21:28N 52°27' E 004°03'0 0.1
2017-Dec-11 20:58N 52°27' E 004°03'0 0.0
2017-Dec-11 20:28N 52°27' E 004°03'0 0.0
2017-Dec-11 19:58N 52°27' E 004°03'0 0.0
2017-Dec-11 19:28N 52°27' E 004°03'0 0.0
2017-Dec-11 18:55N 52°27' E 004°03'0 0.0
2017-Dec-11 18:28N 52°27' E 004°03'0 0.0
2017-Dec-11 17:58N 52°27' E 004°03'0 0.1
2017-Dec-11 17:28N 52°27' E 004°03'0 0.0
2017-Dec-11 16:58N 52°27' E 004°03'0 0.0
2017-Dec-11 16:28N 52°27' E 004°03'0 0.0
2017-Dec-11 15:58N 52°27' E 004°03'0 0.0
2017-Dec-11 15:28N 52°27' E 004°03'0 0.1
2017-Dec-11 14:58N 52°27' E 004°03'0 0.0
2017-Dec-11 14:28N 52°27' E 004°03'0 0.0
2017-Dec-11 13:58N 52°27' E 004°03'0 0.0
2017-Dec-11 13:28N 52°27' E 004°03'0 0.1
2017-Dec-11 12:58N 52°27' E 004°03'0 0.1
2017-Dec-11 12:28N 52°27' E 004°03'0 0.1
2017-Dec-11 11:58N 52°27' E 004°03'0 0.1
2017-Dec-11 11:28N 52°27' E 004°03'0 0.0
2017-Dec-11 10:58N 52°27' E 004°03'0 0.0
2017-Dec-11 10:28N 52°27' E 004°03'0 0.0
2017-Dec-11 09:58N 52°27' E 004°03'0 0.1
2017-Dec-11 09:28N 52°27' E 004°03'0 0.0
2017-Dec-11 08:58N 52°27' E 004°03'0 0.0
2017-Dec-11 08:28N 52°27' E 004°03'0 0.0
2017-Dec-11 07:58N 52°27' E 004°03'0 0.1
2017-Dec-11 07:28N 52°27' E 004°03'0 0.1
2017-Dec-11 06:58N 52°27' E 004°03'0 0.0
2017-Dec-11 06:28N 52°27' E 004°03'0 0.0
2017-Dec-11 05:58N 52°27' E 004°03'0 0.1
2017-Dec-11 05:25N 52°27' E 004°03'0 0.0
2017-Dec-11 04:58N 52°27' E 004°03'0 0.0
2017-Dec-11 04:28N 52°27' E 004°03'0 0.0
2017-Dec-11 03:58N 52°27' E 004°03'0 0.0
2017-Dec-11 03:28N 52°27' E 004°03'0 0.0
2017-Dec-11 02:58N 52°27' E 004°03'0 0.0
2017-Dec-11 02:28N 52°27' E 004°03'0 0.0
2017-Dec-11 01:58N 52°27' E 004°03'0 0.0
2017-Dec-11 01:25N 52°27' E 004°03'0 0.0
2017-Dec-11 00:58N 52°27' E 004°03'0 0.0
2017-Dec-11 00:25N 52°27' E 004°03'0 0.1
2017-Dec-10 23:58N 52°27' E 004°03'0 0.1
2017-Dec-10 23:28N 52°27' E 004°03'0 0.3
2017-Dec-10 22:58N 52°27' E 004°03'0 0.0
2017-Dec-10 22:28N 52°27' E 004°03'0 0.0
2017-Dec-10 21:58N 52°27' E 004°03'0 0.1
2017-Dec-10 21:28N 52°27' E 004°03'0 0.0
2017-Dec-10 20:58N 52°27' E 004°03'1 1.4
2017-Dec-10 20:30N 52°27' E 004°02'5 9.1
2017-Dec-10 20:00N 52°27' E 003°55'611.1
2017-Dec-10 19:30N 52°26' E 003°46'6611.7
2017-Dec-10 13:53N 51°40' E 002°29'511.9
2017-Dec-10 13:29N 51°36' E 002°25'612.1
2017-Dec-10 12:59N 51°31' E 002°18'612.3
2017-Dec-10 12:30N 51°27' E 002°12'611.9
2017-Dec-10 12:00N 51°22' E 002°08'612.5
2017-Dec-10 11:30N 51°16' E 002°06'713.2
2017-Dec-10 11:00N 51°12' E 001°57'713.5
2017-Dec-10 10:30N 51°08' E 001°48'713.5
2017-Dec-10 10:00N 51°03' E 001°40'713.7
2017-Dec-10 09:30N 50°58' E 001°34'713.8
2017-Dec-10 09:00N 50°52' E 001°28'913.7
2017-Dec-10 08:22N 50°44' E 001°22'2112.5
2017-Dec-10 06:39N 50°30' E 000°58'212.0
2017-Dec-10 06:27N 50°29' E 000°54'511.8
2017-Dec-10 06:00N 50°27' E 000°46'1612.1
2017-Dec-10 04:39N 50°23' E 000°21'412.4
2017-Dec-10 04:21N 50°22' E 000°15'412.5
2017-Dec-10 04:00N 50°21' E 000°09'612.9
2017-Dec-10 03:30N 50°19' W 000°01'1013.5
2017-Dec-10 02:47N 50°16' W 000°15'22013.4
2017-Dec-09 10:24N 48°49' W 005°27'  
Track history (hours):
 
Tides and Currents Weather Stations Pressure Air Temp Water Temp Dewpoint Dewpoint Depression Visibility Wind Speed Wind Dir Waves Ship Positions

Fidias

Last reported at 2017-Dec-15 00:59 UTC. Time now 2017-Dec-15 02:49 UTC.
Position N 52°24' E 004°46'.

Length 183 m; draft 8.6 m.

Type: Tanker. MMSI: 636013390.

Date/timePositionNaut miles runAvg speedWind from/ knotsBaromVisibWave heightAir tempDewpointWater temp
2017-Dec-15 00:59N 52°24' E 004°46'0 0.0
2017-Dec-15 00:29N 52°24' E 004°46'0 0.0
2017-Dec-14 18:29N 52°24' E 004°46'0 0.0
2017-Dec-14 17:53N 52°24' E 004°46'0 0.0
2017-Dec-14 17:29N 52°24' E 004°46'0 0.0
2017-Dec-14 16:53N 52°24' E 004°46'0 0.0
2017-Dec-14 16:23N 52°24' E 004°46'0 0.0
2017-Dec-14 15:56N 52°24' E 004°46'0 0.0
2017-Dec-14 14:59N 52°24' E 004°46'0 0.0
2017-Dec-14 14:20N 52°24' E 004°46'0 0.0
2017-Dec-14 13:59N 52°24' E 004°46'0 0.7
2017-Dec-14 13:30N 52°25' E 004°47'3 6.2
2017-Dec-14 13:00N 52°26' E 004°42'4 7.6
2017-Dec-14 12:31N 52°28' E 004°37'0 0.3
2017-Dec-14 12:01N 52°28' E 004°36'2 3.8
2017-Dec-14 11:30N 52°28' E 004°33'510.1
2017-Dec-14 11:00N 52°29' E 004°25'1 1.2
2017-Dec-14 10:31N 52°29' E 004°25'1 2.3
2017-Dec-14 10:00N 52°28' E 004°24'0 0.6
2017-Dec-14 09:31N 52°28' E 004°24'2 3.9
2017-Dec-14 09:01N 52°28' E 004°21'4 7.2
2017-Dec-14 08:31N 52°29' E 004°15'611.8
2017-Dec-14 08:00N 52°28' E 004°05'1 2.2
2017-Dec-14 07:25N 52°27' E 004°03'0 0.2
2017-Dec-14 06:58N 52°27' E 004°03'0 0.0
2017-Dec-14 06:28N 52°27' E 004°03'0 0.1
2017-Dec-14 05:58N 52°27' E 004°03'0 0.0
2017-Dec-14 05:28N 52°27' E 004°03'0 0.0
2017-Dec-14 04:58N 52°27' E 004°03'0 0.0
2017-Dec-14 04:28N 52°27' E 004°03'0 0.0
2017-Dec-14 03:58N 52°27' E 004°03'0 0.0
2017-Dec-14 03:28N 52°27' E 004°03'0 0.0
2017-Dec-14 02:58N 52°27' E 004°03'0 0.0
2017-Dec-14 02:28N 52°27' E 004°03'0 0.0
2017-Dec-14 01:58N 52°27' E 004°03'0 0.0
2017-Dec-14 01:28N 52°27' E 004°03'0 0.0
2017-Dec-14 00:46N 52°27' E 004°03'0 0.1
2017-Dec-14 00:28N 52°27' E 004°03'0 0.0
2017-Dec-13 23:55N 52°27' E 004°03'0 0.0
2017-Dec-13 23:28N 52°27' E 004°03'0 0.0
2017-Dec-13 22:55N 52°27' E 004°03'0 0.0
2017-Dec-13 22:22N 52°27' E 004°03'0 0.1
2017-Dec-13 21:52N 52°27' E 004°03'0 0.0
2017-Dec-13 21:25N 52°27' E 004°03'0 0.0
2017-Dec-13 20:58N 52°27' E 004°03'0 0.1
2017-Dec-13 20:25N 52°27' E 004°03'0 0.0
2017-Dec-13 19:58N 52°27' E 004°03'0 0.1
2017-Dec-13 19:22N 52°27' E 004°03'0 0.2
2017-Dec-13 18:58N 52°27' E 004°03'0 0.2
2017-Dec-13 18:28N 52°27' E 004°03'0 0.1
2017-Dec-13 17:58N 52°27' E 004°03'0 0.0
2017-Dec-13 17:28N 52°27' E 004°03'0 0.0
2017-Dec-13 16:58N 52°27' E 004°03'0 0.1
2017-Dec-13 16:28N 52°27' E 004°03'0 0.0
2017-Dec-13 15:58N 52°27' E 004°03'0 0.0
2017-Dec-13 15:28N 52°27' E 004°03'0 0.0
2017-Dec-13 14:58N 52°27' E 004°03'0 0.0
2017-Dec-13 14:28N 52°27' E 004°03'0 0.0
2017-Dec-13 13:28N 52°27' E 004°03'0 0.0
2017-Dec-13 12:58N 52°27' E 004°03'0 0.0
2017-Dec-13 12:28N 52°27' E 004°03'0 0.0
2017-Dec-13 11:58N 52°27' E 004°03'0 0.0
2017-Dec-13 11:28N 52°27' E 004°03'0 0.0
2017-Dec-13 10:58N 52°27' E 004°03'0 0.0
2017-Dec-13 10:28N 52°27' E 004°03'0 0.1
2017-Dec-13 09:58N 52°27' E 004°03'0 0.0
2017-Dec-13 09:28N 52°27' E 004°03'0 0.0
2017-Dec-13 08:58N 52°27' E 004°03'0 0.0
2017-Dec-13 08:28N 52°27' E 004°03'0 0.0
2017-Dec-13 07:58N 52°27' E 004°03'0 0.0
2017-Dec-13 07:28N 52°27' E 004°03'0 0.0
2017-Dec-13 06:58N 52°27' E 004°03'0 0.0
2017-Dec-13 06:28N 52°27' E 004°03'0 0.1
2017-Dec-13 05:58N 52°27' E 004°03'0 0.0
2017-Dec-13 05:28N 52°27' E 004°03'0 0.1
2017-Dec-13 04:58N 52°27' E 004°03'0 0.0
2017-Dec-13 04:28N 52°27' E 004°03'0 0.1
2017-Dec-13 03:58N 52°27' E 004°03'0 0.0
2017-Dec-13 03:28N 52°27' E 004°03'0 0.0
2017-Dec-13 02:58N 52°27' E 004°03'0 0.0
2017-Dec-13 02:25N 52°27' E 004°03'0 0.0
2017-Dec-13 01:58N 52°27' E 004°03'0 0.0
2017-Dec-13 01:28N 52°27' E 004°03'0 0.0
2017-Dec-13 00:58N 52°27' E 004°03'0 0.0
2017-Dec-13 00:28N 52°27' E 004°03'0 0.0
2017-Dec-12 23:58N 52°27' E 004°03'0 0.0
2017-Dec-12 23:28N 52°27' E 004°03'0 0.0
2017-Dec-12 22:58N 52°27' E 004°03'0 0.0
2017-Dec-12 22:28N 52°27' E 004°03'0 0.0
2017-Dec-12 21:55N 52°27' E 004°03'0 0.1
2017-Dec-12 21:28N 52°27' E 004°03'0 0.0
2017-Dec-12 20:58N 52°27' E 004°03'0 0.0
2017-Dec-12 20:28N 52°27' E 004°03'0 0.1
2017-Dec-12 19:58N 52°27' E 004°03'0 0.0
2017-Dec-12 19:28N 52°27' E 004°03'0 0.2
2017-Dec-12 18:58N 52°27' E 004°03'0 0.1
2017-Dec-12 18:28N 52°27' E 004°03'0 0.0
2017-Dec-12 17:58N 52°27' E 004°03'0 0.0
2017-Dec-12 17:28N 52°27' E 004°03'0 0.0
2017-Dec-12 16:58N 52°27' E 004°03'0 0.0
2017-Dec-12 16:28N 52°27' E 004°03'0 0.1
2017-Dec-12 15:55N 52°27' E 004°03'0 0.1
2017-Dec-12 15:28N 52°27' E 004°03'0 0.0
2017-Dec-12 14:55N 52°27' E 004°03'0 0.0
2017-Dec-12 14:28N 52°27' E 004°03'0 0.0
2017-Dec-12 13:55N 52°27' E 004°03'0 0.1
2017-Dec-12 13:25N 52°27' E 004°03'0 0.0
2017-Dec-12 12:55N 52°27' E 004°03'0 0.1
2017-Dec-12 12:19N 52°27' E 004°03'0 0.3
2017-Dec-12 11:58N 52°27' E 004°03'0 0.1
2017-Dec-12 11:25N 52°27' E 004°03'0 0.2
2017-Dec-12 10:58N 52°27' E 004°03'0 0.1
2017-Dec-12 10:28N 52°27' E 004°03'0 0.1
2017-Dec-12 09:55N 52°27' E 004°03'0 0.1
2017-Dec-12 09:19N 52°27' E 004°03'0 0.0
2017-Dec-12 08:58N 52°27' E 004°03'0 0.1
2017-Dec-12 08:28N 52°27' E 004°03'0 0.0
2017-Dec-12 07:58N 52°27' E 004°03'0 0.1
2017-Dec-12 07:28N 52°27' E 004°03'0 0.0
2017-Dec-12 06:55N 52°27' E 004°03'0 0.0
2017-Dec-12 06:22N 52°27' E 004°03'0 0.0
2017-Dec-12 05:58N 52°27' E 004°03'0 0.1
2017-Dec-12 05:25N 52°27' E 004°03'0 0.1
2017-Dec-12 04:58N 52°27' E 004°03'0 0.0
2017-Dec-12 04:28N 52°27' E 004°03'0 0.0
2017-Dec-12 03:58N 52°27' E 004°03'0 0.0
2017-Dec-12 03:22N 52°27' E 004°03'0 0.0
2017-Dec-12 02:58N 52°27' E 004°03'0 0.0
2017-Dec-12 02:28N 52°27' E 004°03'0 0.0
2017-Dec-12 01:58N 52°27' E 004°03'0 0.0
2017-Dec-12 01:28N 52°27' E 004°03'0 0.0
2017-Dec-12 00:58N 52°27' E 004°03'0 0.1
2017-Dec-12 00:28N 52°27' E 004°03'0 0.1
2017-Dec-11 23:58N 52°27' E 004°03'0 0.1
2017-Dec-11 23:28N 52°27' E 004°03'0 0.0
2017-Dec-11 22:58N 52°27' E 004°03'0 0.0
2017-Dec-11 22:25N 52°27' E 004°03'0 0.1
2017-Dec-11 21:58N 52°27' E 004°03'0 0.1
2017-Dec-11 21:28N 52°27' E 004°03'0 0.1
2017-Dec-11 20:58N 52°27' E 004°03'0 0.0
2017-Dec-11 20:28N 52°27' E 004°03'0 0.0
2017-Dec-11 19:58N 52°27' E 004°03'0 0.0
2017-Dec-11 19:28N 52°27' E 004°03'0 0.0
2017-Dec-11 18:55N 52°27' E 004°03'0 0.0
2017-Dec-11 18:28N 52°27' E 004°03'0 0.0
2017-Dec-11 17:58N 52°27' E 004°03'0 0.1
2017-Dec-11 17:28N 52°27' E 004°03'0 0.0
2017-Dec-11 16:58N 52°27' E 004°03'0 0.0
2017-Dec-11 16:28N 52°27' E 004°03'0 0.0
2017-Dec-11 15:58N 52°27' E 004°03'0 0.0
2017-Dec-11 15:28N 52°27' E 004°03'0 0.1
2017-Dec-11 14:58N 52°27' E 004°03'0 0.0
2017-Dec-11 14:28N 52°27' E 004°03'0 0.0
2017-Dec-11 13:58N 52°27' E 004°03'0 0.0
2017-Dec-11 13:28N 52°27' E 004°03'0 0.1
2017-Dec-11 12:58N 52°27' E 004°03'0 0.1
2017-Dec-11 12:28N 52°27' E 004°03'0 0.1
2017-Dec-11 11:58N 52°27' E 004°03'0 0.1
2017-Dec-11 11:28N 52°27' E 004°03'0 0.0
2017-Dec-11 10:58N 52°27' E 004°03'0 0.0
2017-Dec-11 10:28N 52°27' E 004°03'0 0.0
2017-Dec-11 09:58N 52°27' E 004°03'0 0.1
2017-Dec-11 09:28N 52°27' E 004°03'0 0.0
2017-Dec-11 08:58N 52°27' E 004°03'0 0.0
2017-Dec-11 08:28N 52°27' E 004°03'0 0.0
2017-Dec-11 07:58N 52°27' E 004°03'0 0.1
2017-Dec-11 07:28N 52°27' E 004°03'0 0.1
2017-Dec-11 06:58N 52°27' E 004°03'0 0.0
2017-Dec-11 06:28N 52°27' E 004°03'0 0.0
2017-Dec-11 05:58N 52°27' E 004°03'0 0.1
2017-Dec-11 05:25N 52°27' E 004°03'0 0.0
2017-Dec-11 04:58N 52°27' E 004°03'0 0.0
2017-Dec-11 04:28N 52°27' E 004°03'0 0.0
2017-Dec-11 03:58N 52°27' E 004°03'0 0.0
2017-Dec-11 03:28N 52°27' E 004°03'0 0.0
2017-Dec-11 02:58N 52°27' E 004°03'0 0.0
2017-Dec-11 02:28N 52°27' E 004°03'0 0.0
2017-Dec-11 01:58N 52°27' E 004°03'0 0.0
2017-Dec-11 01:25N 52°27' E 004°03'0 0.0
2017-Dec-11 00:58N 52°27' E 004°03'0 0.0
2017-Dec-11 00:25N 52°27' E 004°03'0 0.1
2017-Dec-10 23:58N 52°27' E 004°03'0 0.1
2017-Dec-10 23:28N 52°27' E 004°03'0 0.3
2017-Dec-10 22:58N 52°27' E 004°03'0 0.0
2017-Dec-10 22:28N 52°27' E 004°03'0 0.0
2017-Dec-10 21:58N 52°27' E 004°03'0 0.1
2017-Dec-10 21:28N 52°27' E 004°03'0 0.0
2017-Dec-10 20:58N 52°27' E 004°03'1 1.4
2017-Dec-10 20:30N 52°27' E 004°02'5 9.1
2017-Dec-10 20:00N 52°27' E 003°55'611.1
2017-Dec-10 19:30N 52°26' E 003°46'6611.7
2017-Dec-10 13:53N 51°40' E 002°29'511.9
2017-Dec-10 13:29N 51°36' E 002°25'612.1
2017-Dec-10 12:59N 51°31' E 002°18'612.3
2017-Dec-10 12:30N 51°27' E 002°12'611.9
2017-Dec-10 12:00N 51°22' E 002°08'612.5
2017-Dec-10 11:30N 51°16' E 002°06'713.2
2017-Dec-10 11:00N 51°12' E 001°57'713.5
2017-Dec-10 10:30N 51°08' E 001°48'713.5
2017-Dec-10 10:00N 51°03' E 001°40'713.7
2017-Dec-10 09:30N 50°58' E 001°34'713.8
2017-Dec-10 09:00N 50°52' E 001°28'913.7
2017-Dec-10 08:22N 50°44' E 001°22'2112.5
2017-Dec-10 06:39N 50°30' E 000°58'212.0
2017-Dec-10 06:27N 50°29' E 000°54'511.8
2017-Dec-10 06:00N 50°27' E 000°46'1612.1
2017-Dec-10 04:39N 50°23' E 000°21'412.4
2017-Dec-10 04:21N 50°22' E 000°15'412.5
2017-Dec-10 04:00N 50°21' E 000°09'612.9
2017-Dec-10 03:30N 50°19' W 000°01'1013.5
2017-Dec-10 02:47N 50°16' W 000°15'22013.4
2017-Dec-09 10:24N 48°49' W 005°27'  

Dump ship's entire track history